Terminal Aerodrome Forecast
Issued by NWS

Home | Current Version | Previous Version | Text Only | Print | Product List | Glossary Off
Versions: 1 2 3 4 5 6 7 8 9 10 11 12 13 14 15 16 17 18

000
FTUS43 KABR 280500
TAFATY
TAF
KATY 280528Z 2806/2906 17010KT P6SM BKN200
      TEMPO 2810/2812 3SM BR
     FM281200 17005KT 2SM BR SCT250
     FM281600 30006KT P6SM SCT150
     FM282200 33017G25KT P6SM SCT030
     FM290200 33024G35KT P6SM OVC015=

USA.gov is the U.S. government's official web portal to all federal, state and local government web resources and services.